createdAt,value
2017-02-05T00:00:52.478Z,766.61
2017-02-05T00:01:52.477Z,766.94
2017-02-05T00:02:52.478Z,766.41
2017-02-05T00:03:52.484Z,765.75
2017-02-05T00:04:55.541Z,766.56
2017-02-05T00:05:58.110Z,766.7
2017-02-05T00:06:52.484Z,766.39
2017-02-05T00:07:52.479Z,766.22
2017-02-05T00:08:52.479Z,766.18
2017-02-05T00:09:52.482Z,766.5
2017-02-05T00:10:52.484Z,766.68
2017-02-05T00:11:52.489Z,767.12
2017-02-05T00:12:52.492Z,767.5
2017-02-05T00:14:52.484Z,767.32
2017-02-05T00:15:52.490Z,767.25
2017-02-05T00:16:52.487Z,767.11
2017-02-05T00:17:57.661Z,767.04
2017-02-05T00:18:52.489Z,766.1
2017-02-05T00:19:58.608Z,766.23
2017-02-05T00:20:52.486Z,766.29
2017-02-05T00:21:52.494Z,766.11
2017-02-05T00:22:52.499Z,765.8
2017-02-05T00:23:52.491Z,765.66
2017-02-05T00:24:52.489Z,765.29
2017-02-05T00:25:52.502Z,764.87
2017-02-05T00:26:52.485Z,764.61
2017-02-05T00:27:52.494Z,764.04
2017-02-05T00:28:52.493Z,763.87
2017-02-05T00:29:52.490Z,762.95
2017-02-05T00:30:52.500Z,762.12
2017-02-05T00:31:52.490Z,762.11
2017-02-05T00:32:55.031Z,762.11
2017-02-05T00:33:55.493Z,761.65
2017-02-05T00:34:52.504Z,761.7
2017-02-05T00:35:52.508Z,761.85
2017-02-05T00:36:52.498Z,762.18
2017-02-05T00:37:52.502Z,762.79
2017-02-05T00:38:52.515Z,763.26
2017-02-05T00:39:52.501Z,763.11
2017-02-05T00:40:57.943Z,763.09
2017-02-05T00:41:52.509Z,763.41
2017-02-05T00:42:52.506Z,763.24
2017-02-05T00:43:52.507Z,763.11
2017-02-05T00:44:52.506Z,763.11
2017-02-05T00:45:52.509Z,762.77
2017-02-05T00:46:52.512Z,762.03
2017-02-05T00:47:52.506Z,761.23
2017-02-05T00:48:52.512Z,760.92
2017-02-05T00:49:52.504Z,760.77
2017-02-05T00:50:52.510Z,759.98
2017-02-05T00:51:52.530Z,758.94
2017-02-05T00:52:52.595Z,758.63
2017-02-05T00:53:52.520Z,757.81
2017-02-05T00:54:52.528Z,757.49
2017-02-05T00:55:52.519Z,756.7
2017-02-05T00:56:52.529Z,757.03
2017-02-05T00:57:52.524Z,756.05
2017-02-05T00:59:52.515Z,756.08
2017-02-05T01:00:52.522Z,755.17
2017-02-05T01:02:52.524Z,755.11
2017-02-05T01:03:52.517Z,755.28
2017-02-05T01:04:52.517Z,755.11
2017-02-05T01:05:52.525Z,755.29
2017-02-05T01:06:52.520Z,755.12
2017-02-05T01:07:52.523Z,755.16
2017-02-05T01:08:52.526Z,754.66
2017-02-05T01:09:52.527Z,754.65
2017-02-05T01:10:52.534Z,754.53
2017-02-05T01:11:52.524Z,755.17
2017-02-05T01:12:52.531Z,755.87
2017-02-05T01:13:52.530Z,756.1
2017-02-05T01:14:52.521Z,755.28
2017-02-05T01:15:52.533Z,755.65
2017-02-05T01:16:52.537Z,755.79
2017-02-05T01:17:52.533Z,755.79
2017-02-05T01:18:52.535Z,756.13
2017-02-05T01:19:52.538Z,756.51
2017-02-05T01:20:52.538Z,756.17
2017-02-05T01:21:52.530Z,756.16
2017-02-05T01:22:52.557Z,756.35
2017-02-05T01:23:52.529Z,756.38
2017-02-05T01:24:52.538Z,756.06
2017-02-05T01:25:52.540Z,756.52
2017-02-05T01:26:52.536Z,756.52
2017-02-05T01:27:52.545Z,756.37
2017-02-05T01:28:52.597Z,756.37
2017-02-05T01:29:52.545Z,756.1
2017-02-05T01:30:52.535Z,755.31
2017-02-05T01:31:52.546Z,755.14
2017-02-05T01:32:56.717Z,754.68
2017-02-05T01:33:52.536Z,754.7
2017-02-05T01:34:52.544Z,754.19
2017-02-05T01:35:52.548Z,755.05
2017-02-05T01:36:52.541Z,754.89
2017-02-05T01:37:52.556Z,754.94
2017-02-05T01:38:52.544Z,754.27
2017-02-05T01:39:52.544Z,754.26
2017-02-05T01:40:52.547Z,754.1
2017-02-05T01:41:52.558Z,754.27
2017-02-05T01:42:52.548Z,754.45
2017-02-05T01:43:52.555Z,754.77
2017-02-05T01:44:52.556Z,754.66
2017-02-05T01:45:52.566Z,754.48
2017-02-05T01:46:52.555Z,755.14
2017-02-05T01:47:52.569Z,755.51
2017-02-05T01:48:52.556Z,755.15
2017-02-05T01:49:52.565Z,754.69
2017-02-05T01:50:52.557Z,754.7
2017-02-05T01:51:52.553Z,754.7
2017-02-05T01:52:52.566Z,755.03
2017-02-05T01:53:52.566Z,754.34
2017-02-05T01:54:52.562Z,754.45
2017-02-05T01:55:52.571Z,754.54
2017-02-05T01:56:52.565Z,754.54
2017-02-05T01:57:52.559Z,754.56
2017-02-05T01:58:52.571Z,754.57
2017-02-05T01:59:52.565Z,753.97
2017-02-05T02:00:52.565Z,755
2017-02-05T02:01:52.560Z,754.44
2017-02-05T02:02:52.556Z,753.35
2017-02-05T02:03:52.579Z,752.69
2017-02-05T02:04:52.572Z,752.88
2017-02-05T02:05:52.561Z,752.53
2017-02-05T02:06:52.571Z,753.08
2017-02-05T02:07:52.578Z,752.28
2017-02-05T02:08:52.569Z,751.93
2017-02-05T02:09:52.563Z,752.13
2017-02-05T02:10:52.578Z,750.85
2017-02-05T02:11:52.571Z,751.16
2017-02-05T02:12:52.577Z,751.03
2017-02-05T02:13:52.570Z,750.57
2017-02-05T02:14:52.578Z,749.87
2017-02-05T02:15:52.567Z,749.28
2017-02-05T02:16:52.578Z,747.98
2017-02-05T02:17:52.583Z,747.22
2017-02-05T02:18:52.575Z,746.78
2017-02-05T02:19:52.577Z,745.88
2017-02-05T02:20:52.580Z,745.71
2017-02-05T02:21:52.581Z,745.4
2017-02-05T02:22:52.593Z,745.22
2017-02-05T02:23:52.580Z,742.77
2017-02-05T02:24:52.586Z,744.45
2017-02-05T02:25:52.583Z,744.01
2017-02-05T02:26:52.588Z,743
2017-02-05T02:27:52.585Z,742.37
2017-02-05T02:28:52.585Z,741.73
2017-02-05T02:29:52.582Z,741.61
2017-02-05T02:30:52.593Z,741.43
2017-02-05T02:31:52.590Z,741.09
2017-02-05T02:32:52.587Z,740.91
2017-02-05T02:33:52.581Z,741.08
2017-02-05T02:34:52.584Z,740.92
2017-02-05T02:35:52.589Z,740.48
2017-02-05T02:36:52.598Z,739.93
2017-02-05T02:37:52.590Z,739.33
2017-02-05T02:38:52.590Z,738.97
2017-02-05T02:39:52.596Z,738.51
2017-02-05T02:40:52.598Z,738.66
2017-02-05T02:41:52.592Z,738.03
2017-02-05T02:42:52.594Z,736.75
2017-02-05T02:43:52.596Z,735.61
2017-02-05T02:44:52.587Z,735.19
2017-02-05T02:45:52.593Z,734.56
2017-02-05T02:46:52.590Z,734.08
2017-02-05T02:47:52.591Z,733.77
2017-02-05T02:48:52.597Z,733.46
2017-02-05T02:49:52.599Z,732.96
2017-02-05T02:50:52.597Z,731.67
2017-02-05T02:51:52.603Z,731.19
2017-02-05T02:52:52.599Z,729.88
2017-02-05T02:53:52.604Z,729.25
2017-02-05T02:54:52.599Z,728.77
2017-02-05T02:55:52.600Z,727.81
2017-02-05T02:56:52.611Z,727.12
2017-02-05T02:57:52.610Z,726.14
2017-02-05T02:58:52.612Z,725.34
2017-02-05T02:59:52.608Z,725.23
2017-02-05T03:00:52.602Z,724.87
2017-02-05T03:01:52.613Z,724.22
2017-02-05T03:02:52.605Z,723.88
2017-02-05T03:03:52.615Z,723.53
2017-02-05T03:04:52.616Z,723.06
2017-02-05T03:05:52.607Z,723.23
2017-02-05T03:06:52.597Z,722.71
2017-02-05T03:07:52.615Z,722.91
2017-02-05T03:08:52.614Z,723.08
2017-02-05T03:09:52.605Z,723.25
2017-02-05T03:10:52.617Z,723.54
2017-02-05T03:11:52.615Z,723.27
2017-02-05T03:12:52.619Z,724.1
2017-02-05T03:13:52.620Z,723.44
2017-02-05T03:14:52.623Z,723.45
2017-02-05T03:15:52.623Z,723.64
2017-02-05T03:16:52.615Z,724.3
2017-02-05T03:17:52.624Z,725.33
2017-02-05T03:18:52.627Z,725.64
2017-02-05T03:19:52.620Z,725.94
2017-02-05T03:20:52.639Z,726.87
2017-02-05T03:21:52.622Z,726.65
2017-02-05T03:22:52.636Z,726.98
2017-02-05T03:23:52.627Z,727.67
2017-02-05T03:24:52.631Z,727.68
2017-02-05T03:25:52.621Z,727.33
2017-02-05T03:26:52.628Z,727.67
2017-02-05T03:27:52.639Z,728.57
2017-02-05T03:28:52.625Z,728.05
2017-02-05T03:29:52.626Z,728.41
2017-02-05T03:30:52.626Z,729.35
2017-02-05T03:31:52.627Z,729.03
2017-02-05T03:32:52.628Z,729.23
2017-02-05T03:33:52.627Z,729.18
2017-02-05T03:34:52.637Z,729.01
2017-02-05T03:35:52.628Z,728.93
2017-02-05T03:36:52.641Z,728.24
2017-02-05T03:37:52.643Z,727.96
2017-02-05T03:38:52.639Z,726.58
2017-02-05T03:39:52.668Z,726.3
2017-02-05T03:40:52.648Z,724.98
2017-02-05T03:41:52.638Z,723.5
2017-02-05T03:42:52.649Z,722.55
2017-02-05T03:43:52.641Z,722.04
2017-02-05T03:44:52.639Z,720.53
2017-02-05T03:45:52.646Z,720.39
2017-02-05T03:46:52.649Z,719.6
2017-02-05T03:47:52.659Z,718.38
2017-02-05T03:48:52.644Z,718.57
2017-02-05T03:49:52.653Z,719.01
2017-02-05T03:50:52.649Z,718.3
2017-02-05T03:51:52.644Z,718.34
2017-02-05T03:52:52.654Z,718.33
2017-02-05T03:53:52.656Z,717.98
2017-02-05T03:54:52.649Z,717.53
2017-02-05T03:55:52.649Z,717.84
2017-02-05T03:56:52.649Z,717.31
2017-02-05T03:57:52.651Z,716.89
2017-02-05T03:58:52.649Z,717.71
2017-02-05T03:59:52.665Z,716.87
2017-02-05T04:00:52.644Z,716.84
2017-02-05T04:01:52.665Z,717.05
2017-02-05T04:02:52.660Z,716.74
2017-02-05T04:03:52.657Z,716.73
2017-02-05T04:04:52.651Z,716.73
2017-02-05T04:05:52.654Z,717.28
2017-02-05T04:06:52.661Z,717.32
2017-02-05T04:07:52.657Z,717.65
2017-02-05T04:08:52.662Z,718.15
2017-02-05T04:09:52.665Z,718.64
2017-02-05T04:10:52.651Z,719.29
2017-02-05T04:11:52.672Z,719.11
2017-02-05T04:12:52.664Z,719.63
2017-02-05T04:13:52.662Z,720.14
2017-02-05T04:14:52.661Z,720.31
2017-02-05T04:15:52.664Z,720.1
2017-02-05T04:16:52.659Z,720.6
2017-02-05T04:17:52.681Z,718.81
2017-02-05T04:18:52.664Z,718.85
2017-02-05T04:19:52.667Z,718.54
2017-02-05T04:20:52.668Z,718.85
2017-02-05T04:21:52.672Z,718.36
2017-02-05T04:22:52.664Z,717.97
2017-02-05T04:23:52.668Z,717.99
2017-02-05T04:24:52.688Z,718.17
2017-02-05T04:25:52.671Z,717.36
2017-02-05T04:26:52.667Z,717.2
2017-02-05T04:27:52.680Z,716.51
2017-02-05T04:28:52.674Z,717.05
2017-02-05T04:29:52.669Z,717.06
2017-02-05T04:30:52.680Z,716.51
2017-02-05T04:31:52.677Z,717.4
2017-02-05T04:32:52.674Z,717.03
2017-02-05T04:33:52.672Z,717.37
2017-02-05T04:34:52.682Z,717.3
2017-02-05T04:35:52.678Z,717.92
2017-02-05T04:36:52.682Z,717.46
2017-02-05T04:37:52.683Z,717.84
2017-02-05T04:38:52.674Z,718.16
2017-02-05T04:39:52.686Z,718.02
2017-02-05T04:40:52.690Z,718.2
2017-02-05T04:41:52.690Z,718.03
2017-02-05T04:42:52.680Z,718.78
2017-02-05T04:43:52.686Z,718.91
2017-02-05T04:44:52.687Z,719.91
2017-02-05T04:45:52.679Z,721.14
2017-02-05T04:46:52.689Z,719.8
2017-02-05T04:47:52.694Z,720.25
2017-02-05T04:48:52.687Z,720.43
2017-02-05T04:49:52.698Z,721.11
2017-02-05T04:50:52.697Z,721.31
2017-02-05T04:51:52.684Z,721.42
2017-02-05T04:52:52.696Z,721.11
2017-02-05T04:53:52.693Z,721.07
2017-02-05T04:54:52.692Z,721.11
2017-02-05T04:55:52.698Z,721.6
2017-02-05T04:56:52.692Z,721.88
2017-02-05T04:57:52.686Z,721.95
2017-02-05T04:58:52.689Z,721.87
2017-02-05T04:59:52.691Z,722.56
2017-02-05T05:00:52.701Z,721.95
2017-02-05T05:01:52.695Z,721.8
2017-02-05T05:02:52.693Z,721.86
2017-02-05T05:03:52.705Z,721.21
2017-02-05T05:04:52.700Z,719.89
2017-02-05T05:05:52.705Z,719.9
2017-02-05T05:06:52.709Z,719.73
2017-02-05T05:07:52.696Z,720.43
2017-02-05T05:08:52.710Z,719.18
2017-02-05T05:09:52.705Z,720.36
2017-02-05T05:10:52.704Z,719.86
2017-02-05T05:11:52.701Z,719.49
2017-02-05T05:12:52.705Z,719.42
2017-02-05T05:13:52.702Z,718.93
2017-02-05T05:14:52.714Z,718.25
2017-02-05T05:15:52.712Z,717.8
2017-02-05T05:16:52.714Z,716.78
2017-02-05T05:17:52.717Z,716.48
2017-02-05T05:18:52.720Z,715.83
2017-02-05T05:19:52.716Z,715.28
2017-02-05T05:20:52.711Z,714.47
2017-02-05T05:21:52.715Z,713.93
2017-02-05T05:22:52.714Z,713.67
2017-02-05T05:23:52.712Z,712.81
2017-02-05T05:24:52.718Z,712.87
2017-02-05T05:25:52.710Z,712.52
2017-02-05T05:26:52.715Z,712.06
2017-02-05T05:27:52.721Z,712.04
2017-02-05T05:28:52.729Z,712.2
2017-02-05T05:29:52.717Z,712.72
2017-02-05T05:30:52.733Z,712.23
2017-02-05T05:31:52.710Z,712.22
2017-02-05T05:32:52.713Z,712.43
2017-02-05T05:33:52.724Z,712.11
2017-02-05T05:34:52.715Z,712.23
2017-02-05T05:35:52.721Z,712.1
2017-02-05T05:36:52.718Z,712.27
2017-02-05T05:37:52.730Z,712.94
2017-02-05T05:38:52.726Z,712.27
2017-02-05T05:39:52.726Z,713
2017-02-05T05:40:52.726Z,713.53
2017-02-05T05:41:52.741Z,714.18
2017-02-05T05:42:52.726Z,714
2017-02-05T05:43:52.733Z,714.21
2017-02-05T05:44:52.731Z,714.41
2017-02-05T05:45:52.721Z,714.07
2017-02-05T05:46:52.722Z,714.28
2017-02-05T05:47:52.735Z,713.27
2017-02-05T05:48:52.726Z,713.4
2017-02-05T05:49:52.751Z,712.88
2017-02-05T05:50:52.753Z,712.87
2017-02-05T05:51:52.732Z,712.43
2017-02-05T05:52:52.728Z,712.19
2017-02-05T05:53:52.735Z,711.83
2017-02-05T05:54:52.736Z,711.69
2017-02-05T05:55:52.738Z,711.52
2017-02-05T05:56:52.736Z,711.03
2017-02-05T05:57:52.743Z,710.73
2017-02-05T05:58:52.740Z,711.06
2017-02-05T05:59:52.746Z,711.05
2017-02-05T06:00:52.739Z,710.69
2017-02-05T06:01:52.730Z,710.54
2017-02-05T06:02:52.741Z,710.64
2017-02-05T06:03:52.735Z,710.81
2017-02-05T06:04:52.738Z,710.59
2017-02-05T06:05:52.752Z,708.67
2017-02-05T06:06:52.748Z,710.35
2017-02-05T06:07:52.741Z,710.61
2017-02-05T06:08:52.745Z,710.96
2017-02-05T06:09:52.751Z,710.77
2017-02-05T06:10:52.748Z,710.65
2017-02-05T06:11:52.751Z,709.99
2017-02-05T06:12:52.744Z,710.14
2017-02-05T06:13:52.737Z,709.79
2017-02-05T06:14:52.744Z,710.36
2017-02-05T06:15:52.752Z,710.19
2017-02-05T06:16:52.760Z,710.35
2017-02-05T06:17:52.769Z,711.21
2017-02-05T06:18:52.753Z,711.23
2017-02-05T06:19:52.749Z,711.22
2017-02-05T06:20:52.759Z,711.5
2017-02-05T06:21:52.757Z,711.55
2017-02-05T06:22:52.761Z,712.01
2017-02-05T06:23:52.761Z,712.03
2017-02-05T06:24:52.761Z,712.51
2017-02-05T06:25:52.764Z,712.32
2017-02-05T06:26:52.752Z,712.45
2017-02-05T06:27:52.751Z,712.45
2017-02-05T06:28:52.757Z,713.5
2017-02-05T06:29:52.762Z,713.67
2017-02-05T06:30:52.762Z,714.2
2017-02-05T06:31:52.762Z,714.82
2017-02-05T06:32:52.756Z,715.5
2017-02-05T06:33:52.760Z,715.29
2017-02-05T06:34:52.766Z,715.76
2017-02-05T06:35:52.760Z,715.4
2017-02-05T06:36:52.765Z,715.91
2017-02-05T06:37:52.769Z,715.36
2017-02-05T06:38:52.762Z,715.86
2017-02-05T06:39:52.765Z,716.42
2017-02-05T06:40:52.764Z,716.14
2017-02-05T06:41:52.776Z,716.67
2017-02-05T06:42:52.768Z,714.44
2017-02-05T06:43:52.762Z,716.46
2017-02-05T06:44:52.768Z,716.76
2017-02-05T06:45:52.771Z,716.64
2017-02-05T06:46:52.775Z,717.15
2017-02-05T06:47:52.776Z,717.17
2017-02-05T06:48:52.769Z,717.36
2017-02-05T06:49:52.765Z,718.03
2017-02-05T06:50:52.769Z,718.51
2017-02-05T06:51:52.782Z,718.02
2017-02-05T06:52:52.772Z,719.22
2017-02-05T06:53:52.770Z,719.08
2017-02-05T06:54:52.777Z,719.39
2017-02-05T06:55:52.776Z,719.73
2017-02-05T06:56:52.773Z,720.6
2017-02-05T06:57:52.781Z,720.47
2017-02-05T06:58:52.782Z,720.12
2017-02-05T06:59:52.792Z,720.96
2017-02-05T07:00:52.793Z,721.09
2017-02-05T07:01:52.786Z,720.92
2017-02-05T07:02:52.788Z,721.79
2017-02-05T07:03:52.782Z,721.43
2017-02-05T07:04:52.781Z,722.46
2017-02-05T07:05:52.783Z,721.74
2017-02-05T07:06:52.786Z,722.05
2017-02-05T07:07:52.781Z,722.9
2017-02-05T07:08:52.783Z,722.55
2017-02-05T07:09:52.788Z,722.75
2017-02-05T07:10:52.788Z,723.28
2017-02-05T07:11:52.790Z,723.45
2017-02-05T07:12:52.792Z,722.94
2017-02-05T07:13:52.793Z,722.79
2017-02-05T07:14:52.800Z,722.55
2017-02-05T07:15:52.796Z,723.26
2017-02-05T07:16:52.811Z,723.28
2017-02-05T07:17:52.790Z,724.12
2017-02-05T07:18:52.801Z,724.79
2017-02-05T07:19:52.801Z,725.22
2017-02-05T07:20:52.794Z,725.24
2017-02-05T07:21:52.794Z,725.97
2017-02-05T07:22:52.797Z,726.62
2017-02-05T07:23:52.800Z,727.13
2017-02-05T07:24:52.798Z,727.84
2017-02-05T07:25:52.799Z,728.15
2017-02-05T07:26:52.815Z,728.35
2017-02-05T07:27:52.800Z,729.32
2017-02-05T07:28:52.817Z,729.63
2017-02-05T07:29:52.813Z,729.76
2017-02-05T07:30:52.808Z,730.78
2017-02-05T07:31:52.798Z,730.66
2017-02-05T07:32:52.804Z,731.69
2017-02-05T07:33:52.816Z,731.17
2017-02-05T07:34:52.799Z,731.02
2017-02-05T07:35:52.817Z,731.02
2017-02-05T07:36:52.806Z,731.51
2017-02-05T07:37:52.806Z,731.37
2017-02-05T07:38:52.813Z,732.19
2017-02-05T07:39:52.805Z,732.38
2017-02-05T07:40:52.818Z,732.84
2017-02-05T07:41:52.816Z,733.21
2017-02-05T07:42:52.813Z,733.85
2017-02-05T07:43:52.823Z,734.39
2017-02-05T07:44:52.819Z,735.02
2017-02-05T07:45:52.809Z,735.82
2017-02-05T07:46:52.811Z,736.49
2017-02-05T07:47:52.837Z,737.11
2017-02-05T07:48:52.820Z,738.13
2017-02-05T07:49:52.813Z,738.94
2017-02-05T07:50:52.826Z,739.26
2017-02-05T07:51:52.825Z,739.93
2017-02-05T07:52:52.814Z,740.93
2017-02-05T07:53:52.827Z,741.89
2017-02-05T07:54:52.823Z,741.93
2017-02-05T07:55:52.826Z,742.25
2017-02-05T07:56:52.862Z,743.03
2017-02-05T07:57:52.834Z,743.06
2017-02-05T07:58:52.830Z,742.84
2017-02-05T07:59:52.833Z,742.98
2017-02-05T08:00:52.828Z,744.59
2017-02-05T08:01:52.839Z,745.07
2017-02-05T08:02:52.834Z,746.19
2017-02-05T08:03:52.834Z,747.3
2017-02-05T08:04:52.849Z,747.37
2017-02-05T08:05:52.822Z,748.31
2017-02-05T08:06:52.845Z,748.83
2017-02-05T08:07:52.838Z,750.09
2017-02-05T08:08:52.829Z,750.02
2017-02-05T08:09:52.844Z,751.41
2017-02-05T08:10:52.832Z,752.7
2017-02-05T08:11:52.838Z,753.3
2017-02-05T08:12:52.831Z,753.95
2017-02-05T08:13:52.837Z,755.74
2017-02-05T08:14:52.839Z,756.64
2017-02-05T08:15:52.840Z,757.64
2017-02-05T08:16:52.841Z,758.74
2017-02-05T08:17:52.833Z,760.2
2017-02-05T08:18:52.845Z,760.49
2017-02-05T08:19:52.863Z,762.75
2017-02-05T08:20:52.840Z,763.68
2017-02-05T08:21:52.855Z,764.77
2017-02-05T08:22:52.852Z,765.41
2017-02-05T08:23:52.841Z,766.31
2017-02-05T08:24:52.847Z,767.44
2017-02-05T08:25:52.846Z,767.91
2017-02-05T08:26:52.844Z,769.3
2017-02-05T08:27:52.843Z,769.6
2017-02-05T08:28:52.857Z,770.54
2017-02-05T08:29:52.845Z,771.97
2017-02-05T08:30:52.848Z,773.16
2017-02-05T08:31:52.847Z,775.34
2017-02-05T08:32:52.854Z,776.41
2017-02-05T08:33:52.853Z,777.62
2017-02-05T08:34:52.858Z,779.34
2017-02-05T08:35:52.895Z,781.5
2017-02-05T08:36:52.850Z,782.61
2017-02-05T08:37:52.852Z,784.29
2017-02-05T08:38:52.849Z,786.44
2017-02-05T08:39:52.852Z,789.06
2017-02-05T08:40:52.852Z,790.92
2017-02-05T08:41:52.860Z,791.48
2017-02-05T08:42:52.864Z,792.56
2017-02-05T08:43:52.858Z,795.14
2017-02-05T08:44:52.861Z,796.94
2017-02-05T08:45:52.858Z,797.94
2017-02-05T08:46:52.851Z,798.84
2017-02-05T08:47:52.860Z,800.2
2017-02-05T08:48:52.869Z,800.63
2017-02-05T08:49:52.869Z,802.44
2017-02-05T08:50:52.861Z,803.02
2017-02-05T08:51:52.874Z,803.77
2017-02-05T08:52:52.872Z,804.2
2017-02-05T08:53:52.870Z,805.26
2017-02-05T08:54:52.867Z,806.64
2017-02-05T08:55:52.869Z,806.92
2017-02-05T08:56:52.872Z,806.94
2017-02-05T08:57:52.871Z,807.01
2017-02-05T08:58:52.870Z,806.88
2017-02-05T08:59:52.873Z,807.47
2017-02-05T09:00:52.870Z,807.78
2017-02-05T09:01:52.873Z,808.96
2017-02-05T09:02:52.871Z,809.7
2017-02-05T09:03:52.871Z,810.63
2017-02-05T09:04:52.878Z,811.45
2017-02-05T09:05:52.868Z,812.46
2017-02-05T09:06:52.878Z,812.15
2017-02-05T09:07:52.883Z,812.75
2017-02-05T09:08:52.883Z,813.8
2017-02-05T09:09:52.874Z,814.89
2017-02-05T09:10:52.878Z,815.16
2017-02-05T09:11:52.886Z,816.02
2017-02-05T09:12:52.880Z,816.32
2017-02-05T09:13:52.877Z,816.53
2017-02-05T09:14:52.883Z,817.86
2017-02-05T09:15:52.886Z,819.6
2017-02-05T09:16:52.880Z,820.88
2017-02-05T09:17:52.877Z,821.01
2017-02-05T09:18:52.873Z,822.17
2017-02-05T09:19:52.889Z,823.17
2017-02-05T09:20:52.890Z,824.04
2017-02-05T09:21:52.879Z,825.2
2017-02-05T09:22:52.898Z,826.22
2017-02-05T09:23:52.887Z,826.22
2017-02-05T09:24:52.884Z,827.38
2017-02-05T09:25:52.910Z,828.8
2017-02-05T09:26:52.889Z,829.92
2017-02-05T09:27:52.889Z,831.95
2017-02-05T09:28:52.913Z,833.64
2017-02-05T09:29:52.902Z,835.43
2017-02-05T09:30:52.883Z,837.42
2017-02-05T09:31:52.892Z,840.28
2017-02-05T09:32:52.897Z,842.8
2017-02-05T09:33:52.903Z,844.73
2017-02-05T09:34:52.914Z,846.94
2017-02-05T09:35:52.888Z,849.5
2017-02-05T09:36:52.900Z,851.97
2017-02-05T09:37:52.898Z,854.86
2017-02-05T09:38:52.894Z,858.42
2017-02-05T09:39:52.906Z,861.96
2017-02-05T09:40:52.896Z,865.46
2017-02-05T09:41:52.899Z,868.17
2017-02-05T09:42:52.903Z,870.92
2017-02-05T09:43:52.909Z,873.75
2017-02-05T09:44:52.912Z,875.98
2017-02-05T09:45:52.901Z,879.01
2017-02-05T09:46:52.908Z,880.74
2017-02-05T09:47:52.904Z,881.63
2017-02-05T09:48:52.905Z,883.63
2017-02-05T09:49:52.925Z,886.21
2017-02-05T09:50:52.910Z,888.49
2017-02-05T09:51:52.904Z,890.37
2017-02-05T09:52:52.911Z,892.62
2017-02-05T09:53:52.904Z,893.99
2017-02-05T09:54:52.908Z,896.59
2017-02-05T09:55:52.916Z,899.43
2017-02-05T09:56:52.913Z,902.34
2017-02-05T09:57:52.925Z,906
2017-02-05T09:58:52.921Z,908.85
2017-02-05T09:59:52.916Z,912.19
2017-02-05T10:00:52.926Z,914.72
2017-02-05T10:01:52.916Z,918.32
2017-02-05T10:02:52.920Z,921.1
2017-02-05T10:03:52.915Z,922.62
2017-02-05T10:04:52.955Z,925.95
2017-02-05T10:05:52.918Z,928.14
2017-02-05T10:06:52.918Z,930.88
2017-02-05T10:07:52.923Z,932.98
2017-02-05T10:08:52.919Z,935.03
2017-02-05T10:09:52.916Z,937.29
2017-02-05T10:10:52.929Z,939.03
2017-02-05T10:11:52.922Z,940.48
2017-02-05T10:12:52.926Z,941.41
2017-02-05T10:13:52.925Z,942.62
2017-02-05T10:14:52.937Z,943.23
2017-02-05T10:15:52.931Z,944.37
2017-02-05T10:16:52.926Z,944.93
2017-02-05T10:17:52.929Z,945.07
2017-02-05T10:18:52.923Z,945.93
2017-02-05T10:19:52.938Z,945.88
2017-02-05T10:20:52.933Z,946.21
2017-02-05T10:21:52.931Z,946.25
2017-02-05T10:22:52.937Z,946.96
2017-02-05T10:23:52.936Z,948.46
2017-02-05T10:24:52.934Z,949.03
2017-02-05T10:25:52.936Z,950.62
2017-02-05T10:26:52.937Z,951.23
2017-02-05T10:27:52.927Z,952.43
2017-02-05T10:28:52.953Z,953.06
2017-02-05T10:29:52.932Z,954.11
2017-02-05T10:30:52.932Z,955.07
2017-02-05T10:31:52.933Z,956.42
2017-02-05T10:32:52.949Z,957.57
2017-02-05T10:33:52.935Z,959.01
2017-02-05T10:34:52.937Z,960.32
2017-02-05T10:35:52.946Z,961.86
2017-02-05T10:36:52.952Z,963.83
2017-02-05T10:37:52.947Z,964.32
2017-02-05T10:38:52.947Z,965.82
2017-02-05T10:39:52.944Z,966.21
2017-02-05T10:40:52.947Z,967.99
2017-02-05T10:41:52.947Z,968.3
2017-02-05T10:42:52.955Z,969.3
2017-02-05T10:43:52.944Z,970.45
2017-02-05T10:44:52.947Z,971.88
2017-02-05T10:45:52.956Z,972.87
2017-02-05T10:46:52.960Z,973.22
2017-02-05T10:47:52.963Z,974.53
2017-02-05T10:48:52.962Z,974.92
2017-02-05T10:49:52.949Z,976.05
2017-02-05T10:50:52.953Z,976.54
2017-02-05T10:51:52.961Z,976.86
2017-02-05T10:52:52.957Z,976.94
2017-02-05T10:53:52.961Z,977.99
2017-02-05T10:54:52.959Z,979.6
2017-02-05T10:55:52.956Z,980.43
2017-02-05T10:56:52.953Z,982.36
2017-02-05T10:57:52.960Z,984.71
2017-02-05T10:58:53.009Z,986.24
2017-02-05T10:59:52.959Z,987.65
2017-02-05T11:00:52.970Z,989.5
2017-02-05T11:01:52.969Z,990.31
2017-02-05T11:02:52.962Z,991.12
2017-02-05T11:03:52.965Z,991.93
2017-02-05T11:04:52.965Z,993.46
2017-02-05T11:05:52.961Z,995
2017-02-05T11:06:52.979Z,995.68
2017-02-05T11:07:52.961Z,996.17
2017-02-05T11:08:52.977Z,997.04
2017-02-05T11:09:52.963Z,998.58
2017-02-05T11:10:52.977Z,999.64
2017-02-05T11:11:52.980Z,1000.11
2017-02-05T11:12:52.981Z,1000.96
2017-02-05T11:13:52.983Z,1001.51
2017-02-05T11:14:52.977Z,1001.81
2017-02-05T11:15:52.983Z,1002
2017-02-05T11:16:52.976Z,1002.7
2017-02-05T11:17:52.992Z,1003.27
2017-02-05T11:18:52.973Z,1003.78
2017-02-05T11:19:52.983Z,1003.85
2017-02-05T11:20:52.991Z,1003.09
2017-02-05T11:21:52.986Z,1001.94
2017-02-05T11:22:53.006Z,1000.57
2017-02-05T11:23:52.979Z,999.81
2017-02-05T11:24:52.988Z,999.09
2017-02-05T11:25:52.986Z,999.52
2017-02-05T11:26:52.991Z,999.77
2017-02-05T11:27:52.983Z,1000.66
2017-02-05T11:28:57.383Z,1001.51
2017-02-05T11:29:53.020Z,1002.47
2017-02-05T11:30:53.271Z,1002.72
2017-02-05T11:31:53.005Z,1002.99
2017-02-05T11:32:53.005Z,1002.62
2017-02-05T11:33:52.991Z,1001.34
2017-02-05T11:34:52.986Z,999.52
2017-02-05T11:35:52.994Z,997.74
2017-02-05T11:36:52.996Z,995.97
2017-02-05T11:37:52.990Z,993.67
2017-02-05T11:38:53.002Z,990.65
2017-02-05T11:39:52.989Z,988.97
2017-02-05T11:40:52.992Z,986.73
2017-02-05T11:41:53.003Z,984.69
2017-02-05T11:42:52.999Z,982.53
2017-02-05T11:43:52.998Z,980.03
2017-02-05T11:44:53.013Z,978.33
2017-02-05T11:45:53.005Z,976.05
2017-02-05T11:46:53.010Z,973.72
2017-02-05T11:47:53.000Z,972.43
2017-02-05T11:48:53.023Z,970.77
2017-02-05T11:49:53.011Z,968.52
2017-02-05T11:50:53.014Z,967.34
2017-02-05T11:51:53.020Z,965.91
2017-02-05T11:52:55.131Z,964.36
2017-02-05T11:53:53.051Z,962.79
2017-02-05T11:54:53.010Z,959.31
2017-02-05T11:55:53.011Z,957.37
2017-02-05T11:56:53.002Z,955.26
2017-02-05T11:57:53.005Z,952.63
2017-02-05T11:58:53.015Z,950.59
2017-02-05T11:59:53.079Z,949.54
2017-02-05T12:00:53.011Z,948.45
2017-02-05T12:01:53.012Z,946.45
2017-02-05T12:02:53.020Z,942.6
2017-02-05T12:03:53.012Z,940.64
2017-02-05T12:05:53.028Z,941.65
2017-02-05T12:06:53.211Z,943.29
2017-02-05T12:07:53.026Z,946.11
2017-02-05T12:08:53.057Z,949.6
2017-02-05T12:09:53.023Z,951.72
2017-02-05T12:10:53.041Z,954.7
2017-02-05T12:11:53.026Z,958.41
2017-02-05T12:12:53.018Z,963.56
2017-02-05T12:13:53.022Z,968.93
2017-02-05T12:14:53.018Z,973.8
2017-02-05T12:15:53.471Z,976.87
2017-02-05T12:16:53.518Z,978.54
2017-02-05T12:17:53.035Z,977
2017-02-05T12:18:53.024Z,975.25
2017-02-05T12:19:53.030Z,972.17
2017-02-05T12:20:53.049Z,969.54
2017-02-05T12:21:53.038Z,967.04
2017-02-05T12:22:53.033Z,965.19
2017-02-05T12:23:53.040Z,964.06
2017-02-05T12:24:53.029Z,961.85
2017-02-05T12:25:53.047Z,962.79
2017-02-05T12:26:53.038Z,961.7
2017-02-05T12:27:53.034Z,960.08
2017-02-05T12:28:53.039Z,958.19
2017-02-05T12:29:53.040Z,956.22
2017-02-05T12:30:53.065Z,954.37
2017-02-05T12:31:53.030Z,952.83
2017-02-05T12:32:53.037Z,952.35
2017-02-05T12:33:53.048Z,953.07
2017-02-05T12:34:53.037Z,953.53